sensor_id;sensor_type;location;lat;lon;timestamp;temperature;humidity
33095;DHT22;19459;53.044;8.910;2022-08-19T00:01:07;18.30;99.90
33095;DHT22;19459;53.044;8.910;2022-08-19T00:03:33;18.30;99.90
33095;DHT22;19459;53.044;8.910;2022-08-19T00:05:59;18.40;99.90
33095;DHT22;19459;53.044;8.910;2022-08-19T00:08:25;18.40;99.90
33095;DHT22;19459;53.044;8.910;2022-08-19T00:10:51;18.40;99.90
33095;DHT22;19459;53.044;8.910;2022-08-19T00:13:17;18.40;99.90
33095;DHT22;19459;53.044;8.910;2022-08-19T00:15:43;18.40;99.90
33095;DHT22;19459;53.044;8.910;2022-08-19T00:18:10;18.40;99.90
33095;DHT22;19459;53.044;8.910;2022-08-19T00:20:36;18.40;99.90
33095;DHT22;19459;53.044;8.910;2022-08-19T00:23:03;18.40;99.90
33095;DHT22;19459;53.044;8.910;2022-08-19T00:25:29;18.40;99.90
33095;DHT22;19459;53.044;8.910;2022-08-19T00:27:54;18.40;99.90
33095;DHT22;19459;53.044;8.910;2022-08-19T00:30:20;18.50;99.90
33095;DHT22;19459;53.044;8.910;2022-08-19T00:32:46;18.50;99.90
33095;DHT22;19459;53.044;8.910;2022-08-19T00:35:12;18.50;99.90
33095;DHT22;19459;53.044;8.910;2022-08-19T00:37:38;18.60;99.90
33095;DHT22;19459;53.044;8.910;2022-08-19T00:40:04;18.60;99.90
33095;DHT22;19459;53.044;8.910;2022-08-19T00:42:31;18.60;99.90
33095;DHT22;19459;53.044;8.910;2022-08-19T00:44:57;18.60;99.90
33095;DHT22;19459;53.044;8.910;2022-08-19T00:47:23;18.60;99.90
33095;DHT22;19459;53.044;8.910;2022-08-19T00:49:54;18.70;99.90
33095;DHT22;19459;53.044;8.910;2022-08-19T00:52:27;18.70;99.90
33095;DHT22;19459;53.044;8.910;2022-08-19T00:54:55;18.70;99.90
33095;DHT22;19459;53.044;8.910;2022-08-19T00:57:26;18.80;99.90
33095;DHT22;19459;53.044;8.910;2022-08-19T00:59:54;18.70;99.90
33095;DHT22;19459;53.044;8.910;2022-08-19T01:02:20;18.70;99.90
33095;DHT22;19459;53.044;8.910;2022-08-19T01:04:46;18.60;99.90
33095;DHT22;19459;53.044;8.910;2022-08-19T01:07:12;18.70;99.90
33095;DHT22;19459;53.044;8.910;2022-08-19T01:09:37;18.70;99.90
33095;DHT22;19459;53.044;8.910;2022-08-19T01:12:03;18.70;99.90
33095;DHT22;19459;53.044;8.910;2022-08-19T01:14:29;18.70;99.90
33095;DHT22;19459;53.044;8.910;2022-08-19T01:16:56;18.70;99.90
33095;DHT22;19459;53.044;8.910;2022-08-19T01:19:29;18.80;99.90
33095;DHT22;19459;53.044;8.910;2022-08-19T01:24:49;18.80;99.90
33095;DHT22;19459;53.044;8.910;2022-08-19T01:27:16;18.80;99.90
33095;DHT22;19459;53.044;8.910;2022-08-19T01:29:42;18.80;99.90
33095;DHT22;19459;53.044;8.910;2022-08-19T01:32:09;18.80;99.90
33095;DHT22;19459;53.044;8.910;2022-08-19T01:34:37;18.80;99.90
33095;DHT22;19459;53.044;8.910;2022-08-19T01:37:08;18.80;99.90
33095;DHT22;19459;53.044;8.910;2022-08-19T01:39:36;18.70;99.90
33095;DHT22;19459;53.044;8.910;2022-08-19T01:42:03;18.70;99.90
33095;DHT22;19459;53.044;8.910;2022-08-19T01:44:29;18.80;99.90
33095;DHT22;19459;53.044;8.910;2022-08-19T01:46:55;18.80;99.90
33095;DHT22;19459;53.044;8.910;2022-08-19T01:49:22;18.80;99.90
33095;DHT22;19459;53.044;8.910;2022-08-19T01:51:48;18.70;99.90
33095;DHT22;19459;53.044;8.910;2022-08-19T01:54:15;18.80;99.90
33095;DHT22;19459;53.044;8.910;2022-08-19T01:56:41;18.70;99.90
33095;DHT22;19459;53.044;8.910;2022-08-19T01:59:08;18.70;99.90
33095;DHT22;19459;53.044;8.910;2022-08-19T02:01:39;18.70;99.90
33095;DHT22;19459;53.044;8.910;2022-08-19T02:04:06;18.70;99.90
33095;DHT22;19459;53.044;8.910;2022-08-19T02:06:32;18.70;99.90
33095;DHT22;19459;53.044;8.910;2022-08-19T02:08:58;18.80;99.90
33095;DHT22;19459;53.044;8.910;2022-08-19T02:11:28;18.70;99.90
33095;DHT22;19459;53.044;8.910;2022-08-19T02:14:03;18.70;99.90
33095;DHT22;19459;53.044;8.910;2022-08-19T02:16:31;18.70;99.90
33095;DHT22;19459;53.044;8.910;2022-08-19T02:18:58;18.70;99.90
33095;DHT22;19459;53.044;8.910;2022-08-19T02:21:27;18.70;99.90
33095;DHT22;19459;53.044;8.910;2022-08-19T02:23:53;18.70;99.90
33095;DHT22;19459;53.044;8.910;2022-08-19T02:26:19;18.70;99.90
33095;DHT22;19459;53.044;8.910;2022-08-19T02:28:45;18.70;99.90
33095;DHT22;19459;53.044;8.910;2022-08-19T02:31:12;18.70;99.90
33095;DHT22;19459;53.044;8.910;2022-08-19T02:33:42;18.70;99.90
33095;DHT22;19459;53.044;8.910;2022-08-19T02:36:10;18.70;99.90
33095;DHT22;19459;53.044;8.910;2022-08-19T02:38:38;18.60;99.90
33095;DHT22;19459;53.044;8.910;2022-08-19T02:41:06;18.60;99.90
33095;DHT22;19459;53.044;8.910;2022-08-19T02:43:35;18.60;99.90
33095;DHT22;19459;53.044;8.910;2022-08-19T02:46:13;18.60;99.90
33095;DHT22;19459;53.044;8.910;2022-08-19T02:48:43;18.60;99.90
33095;DHT22;19459;53.044;8.910;2022-08-19T02:51:09;18.60;99.90
33095;DHT22;19459;53.044;8.910;2022-08-19T02:53:41;18.60;99.90
33095;DHT22;19459;53.044;8.910;2022-08-19T02:56:07;18.50;99.90
33095;DHT22;19459;53.044;8.910;2022-08-19T02:58:33;18.60;99.90
33095;DHT22;19459;53.044;8.910;2022-08-19T03:00:59;18.60;99.90
33095;DHT22;19459;53.044;8.910;2022-08-19T03:03:24;18.60;99.90
33095;DHT22;19459;53.044;8.910;2022-08-19T03:05:50;18.60;99.90
33095;DHT22;19459;53.044;8.910;2022-08-19T03:08:16;18.60;99.90
33095;DHT22;19459;53.044;8.910;2022-08-19T03:10:42;18.60;99.90
33095;DHT22;19459;53.044;8.910;2022-08-19T03:13:14;18.60;99.90
33095;DHT22;19459;53.044;8.910;2022-08-19T03:15:41;18.60;99.90
33095;DHT22;19459;53.044;8.910;2022-08-19T03:18:09;18.60;99.90
33095;DHT22;19459;53.044;8.910;2022-08-19T03:20:39;18.60;99.90
33095;DHT22;19459;53.044;8.910;2022-08-19T03:23:06;18.60;99.90
33095;DHT22;19459;53.044;8.910;2022-08-19T03:25:37;18.70;99.90
33095;DHT22;19459;53.044;8.910;2022-08-19T03:28:04;18.70;99.90
33095;DHT22;19459;53.044;8.910;2022-08-19T03:30:29;18.70;99.90
33095;DHT22;19459;53.044;8.910;2022-08-19T03:32:55;18.70;99.90
33095;DHT22;19459;53.044;8.910;2022-08-19T03:35:20;18.60;99.90
33095;DHT22;19459;53.044;8.910;2022-08-19T03:37:46;18.70;99.90
33095;DHT22;19459;53.044;8.910;2022-08-19T03:40:12;18.60;99.90
33095;DHT22;19459;53.044;8.910;2022-08-19T03:42:37;18.60;99.90
33095;DHT22;19459;53.044;8.910;2022-08-19T03:45:03;18.60;99.90
33095;DHT22;19459;53.044;8.910;2022-08-19T03:47:29;18.50;99.90
33095;DHT22;19459;53.044;8.910;2022-08-19T03:49:55;18.50;99.90
33095;DHT22;19459;53.044;8.910;2022-08-19T03:52:21;18.50;99.90
33095;DHT22;19459;53.044;8.910;2022-08-19T03:54:46;18.50;99.90
33095;DHT22;19459;53.044;8.910;2022-08-19T03:57:12;18.50;99.90
33095;DHT22;19459;53.044;8.910;2022-08-19T03:59:38;18.50;99.90
33095;DHT22;19459;53.044;8.910;2022-08-19T04:02:06;18.50;99.90
33095;DHT22;19459;53.044;8.910;2022-08-19T04:04:34;18.60;99.90
33095;DHT22;19459;53.044;8.910;2022-08-19T04:07:01;18.60;99.90
33095;DHT22;19459;53.044;8.910;2022-08-19T04:09:27;18.60;99.90
33095;DHT22;19459;53.044;8.910;2022-08-19T04:11:53;18.60;99.90
33095;DHT22;19459;53.044;8.910;2022-08-19T04:14:23;18.60;99.90
33095;DHT22;19459;53.044;8.910;2022-08-19T04:16:51;18.60;99.90
33095;DHT22;19459;53.044;8.910;2022-08-19T04:19:17;18.60;99.90
33095;DHT22;19459;53.044;8.910;2022-08-19T04:21:44;18.60;99.90
33095;DHT22;19459;53.044;8.910;2022-08-19T04:24:12;18.50;99.90
33095;DHT22;19459;53.044;8.910;2022-08-19T04:26:38;18.50;99.90
33095;DHT22;19459;53.044;8.910;2022-08-19T04:29:08;18.40;99.90
33095;DHT22;19459;53.044;8.910;2022-08-19T04:31:36;18.40;99.90
33095;DHT22;19459;53.044;8.910;2022-08-19T04:34:04;18.40;99.90
33095;DHT22;19459;53.044;8.910;2022-08-19T04:36:35;18.30;99.90
33095;DHT22;19459;53.044;8.910;2022-08-19T04:39:06;18.20;99.90
33095;DHT22;19459;53.044;8.910;2022-08-19T04:41:37;18.20;99.90
33095;DHT22;19459;53.044;8.910;2022-08-19T04:44:21;18.20;99.90
33095;DHT22;19459;53.044;8.910;2022-08-19T04:46:48;18.20;99.90
33095;DHT22;19459;53.044;8.910;2022-08-19T04:49:14;18.20;99.90
33095;DHT22;19459;53.044;8.910;2022-08-19T04:51:43;18.10;99.90
33095;DHT22;19459;53.044;8.910;2022-08-19T04:54:09;18.10;99.90
33095;DHT22;19459;53.044;8.910;2022-08-19T04:56:36;18.10;99.90
33095;DHT22;19459;53.044;8.910;2022-08-19T04:59:02;18.10;99.90
33095;DHT22;19459;53.044;8.910;2022-08-19T05:01:31;18.00;99.90
33095;DHT22;19459;53.044;8.910;2022-08-19T05:03:58;18.00;99.90
33095;DHT22;19459;53.044;8.910;2022-08-19T05:06:26;18.00;99.90
33095;DHT22;19459;53.044;8.910;2022-08-19T05:08:52;18.00;99.90
33095;DHT22;19459;53.044;8.910;2022-08-19T05:11:19;18.00;99.90
33095;DHT22;19459;53.044;8.910;2022-08-19T05:13:49;18.00;99.90
33095;DHT22;19459;53.044;8.910;2022-08-19T05:16:17;18.00;99.90
33095;DHT22;19459;53.044;8.910;2022-08-19T05:18:43;18.00;99.90
33095;DHT22;19459;53.044;8.910;2022-08-19T05:21:28;18.00;99.90
33095;DHT22;19459;53.044;8.910;2022-08-19T05:24:12;18.00;99.90
33095;DHT22;19459;53.044;8.910;2022-08-19T05:26:40;18.00;99.90
33095;DHT22;19459;53.044;8.910;2022-08-19T05:29:11;18.00;99.90
33095;DHT22;19459;53.044;8.910;2022-08-19T05:31:39;17.90;99.90
33095;DHT22;19459;53.044;8.910;2022-08-19T05:34:05;17.90;99.90
33095;DHT22;19459;53.044;8.910;2022-08-19T05:36:37;17.90;99.90
33095;DHT22;19459;53.044;8.910;2022-08-19T05:39:07;17.90;99.90
33095;DHT22;19459;53.044;8.910;2022-08-19T05:41:34;17.90;99.90
33095;DHT22;19459;53.044;8.910;2022-08-19T05:44:03;17.90;99.90
33095;DHT22;19459;53.044;8.910;2022-08-19T05:46:31;17.90;99.90
33095;DHT22;19459;53.044;8.910;2022-08-19T05:48:57;17.80;99.90
33095;DHT22;19459;53.044;8.910;2022-08-19T05:51:24;17.80;99.90
33095;DHT22;19459;53.044;8.910;2022-08-19T05:53:50;17.70;99.90
33095;DHT22;19459;53.044;8.910;2022-08-19T05:56:16;17.70;99.90
33095;DHT22;19459;53.044;8.910;2022-08-19T05:58:43;17.80;99.90
33095;DHT22;19459;53.044;8.910;2022-08-19T06:01:11;17.80;99.90
33095;DHT22;19459;53.044;8.910;2022-08-19T06:03:39;17.80;99.90
33095;DHT22;19459;53.044;8.910;2022-08-19T06:06:05;17.80;99.90
33095;DHT22;19459;53.044;8.910;2022-08-19T06:08:33;17.90;99.90
33095;DHT22;19459;53.044;8.910;2022-08-19T06:14:05;18.00;99.90
33095;DHT22;19459;53.044;8.910;2022-08-19T06:16:35;18.10;99.90
33095;DHT22;19459;53.044;8.910;2022-08-19T06:19:04;18.10;99.90
33095;DHT22;19459;53.044;8.910;2022-08-19T06:21:32;18.20;99.90
33095;DHT22;19459;53.044;8.910;2022-08-19T06:24:01;18.20;99.90
33095;DHT22;19459;53.044;8.910;2022-08-19T06:26:27;18.30;99.90
33095;DHT22;19459;53.044;8.910;2022-08-19T06:28:53;18.30;99.90
33095;DHT22;19459;53.044;8.910;2022-08-19T06:31:26;18.40;99.90
33095;DHT22;19459;53.044;8.910;2022-08-19T06:33:52;18.60;99.90
33095;DHT22;19459;53.044;8.910;2022-08-19T06:36:29;18.70;99.90
33095;DHT22;19459;53.044;8.910;2022-08-19T06:39:00;18.80;99.90
33095;DHT22;19459;53.044;8.910;2022-08-19T06:41:27;19.00;99.90
33095;DHT22;19459;53.044;8.910;2022-08-19T06:43:53;19.10;99.90
33095;DHT22;19459;53.044;8.910;2022-08-19T06:46:19;19.10;99.90
33095;DHT22;19459;53.044;8.910;2022-08-19T06:48:46;19.10;99.90
33095;DHT22;19459;53.044;8.910;2022-08-19T06:51:14;19.10;99.90
33095;DHT22;19459;53.044;8.910;2022-08-19T06:53:41;19.10;99.90
33095;DHT22;19459;53.044;8.910;2022-08-19T06:56:11;19.20;99.90
33095;DHT22;19459;53.044;8.910;2022-08-19T06:58:41;19.30;99.90
33095;DHT22;19459;53.044;8.910;2022-08-19T07:01:07;19.30;99.90
33095;DHT22;19459;53.044;8.910;2022-08-19T07:03:34;19.30;99.90
33095;DHT22;19459;53.044;8.910;2022-08-19T07:06:04;19.30;99.90
33095;DHT22;19459;53.044;8.910;2022-08-19T07:08:34;19.30;99.90
33095;DHT22;19459;53.044;8.910;2022-08-19T07:11:02;19.30;99.90
33095;DHT22;19459;53.044;8.910;2022-08-19T07:13:32;19.30;99.90
33095;DHT22;19459;53.044;8.910;2022-08-19T07:16:08;19.30;99.90
33095;DHT22;19459;53.044;8.910;2022-08-19T07:18:36;19.40;99.90
33095;DHT22;19459;53.044;8.910;2022-08-19T07:21:03;19.50;99.90
33095;DHT22;19459;53.044;8.910;2022-08-19T07:23:41;19.70;99.90
33095;DHT22;19459;53.044;8.910;2022-08-19T07:26:09;19.80;99.90
33095;DHT22;19459;53.044;8.910;2022-08-19T07:28:49;20.00;99.90
33095;DHT22;19459;53.044;8.910;2022-08-19T07:31:16;20.20;99.90
33095;DHT22;19459;53.044;8.910;2022-08-19T07:33:47;20.40;99.90
33095;DHT22;19459;53.044;8.910;2022-08-19T07:36:16;20.60;99.90
33095;DHT22;19459;53.044;8.910;2022-08-19T07:38:45;20.60;99.90
33095;DHT22;19459;53.044;8.910;2022-08-19T07:41:14;20.80;99.90
33095;DHT22;19459;53.044;8.910;2022-08-19T07:43:42;20.90;99.90
33095;DHT22;19459;53.044;8.910;2022-08-19T07:46:09;21.10;99.90
33095;DHT22;19459;53.044;8.910;2022-08-19T07:48:35;21.30;99.90
33095;DHT22;19459;53.044;8.910;2022-08-19T07:51:03;21.40;99.90
33095;DHT22;19459;53.044;8.910;2022-08-19T07:53:31;21.50;99.90
33095;DHT22;19459;53.044;8.910;2022-08-19T07:56:00;21.40;99.90
33095;DHT22;19459;53.044;8.910;2022-08-19T07:58:28;21.50;99.90
33095;DHT22;19459;53.044;8.910;2022-08-19T08:00:54;21.60;99.90
33095;DHT22;19459;53.044;8.910;2022-08-19T08:03:20;21.70;99.90
33095;DHT22;19459;53.044;8.910;2022-08-19T08:06:06;21.90;99.90
33095;DHT22;19459;53.044;8.910;2022-08-19T08:08:50;21.70;99.90
33095;DHT22;19459;53.044;8.910;2022-08-19T08:11:34;21.80;99.90
33095;DHT22;19459;53.044;8.910;2022-08-19T08:14:00;21.70;99.90
33095;DHT22;19459;53.044;8.910;2022-08-19T08:16:26;21.70;99.90
33095;DHT22;19459;53.044;8.910;2022-08-19T08:18:55;21.80;99.90
33095;DHT22;19459;53.044;8.910;2022-08-19T08:21:20;22.30;99.90
33095;DHT22;19459;53.044;8.910;2022-08-19T08:23:46;22.60;99.90
33095;DHT22;19459;53.044;8.910;2022-08-19T08:26:12;22.70;99.90
33095;DHT22;19459;53.044;8.910;2022-08-19T08:28:39;23.20;99.90
33095;DHT22;19459;53.044;8.910;2022-08-19T08:31:05;23.60;99.90
33095;DHT22;19459;53.044;8.910;2022-08-19T08:33:30;23.80;99.90
33095;DHT22;19459;53.044;8.910;2022-08-19T08:35:56;23.90;98.90
33095;DHT22;19459;53.044;8.910;2022-08-19T08:38:22;24.10;99.10
33095;DHT22;19459;53.044;8.910;2022-08-19T08:40:49;24.00;98.10
33095;DHT22;19459;53.044;8.910;2022-08-19T08:43:21;24.00;98.30
33095;DHT22;19459;53.044;8.910;2022-08-19T08:45:52;24.00;98.60
33095;DHT22;19459;53.044;8.910;2022-08-19T08:48:23;23.90;97.80
33095;DHT22;19459;53.044;8.910;2022-08-19T08:50:50;23.80;99.00
33095;DHT22;19459;53.044;8.910;2022-08-19T08:53:18;23.70;99.70
33095;DHT22;19459;53.044;8.910;2022-08-19T08:55:45;23.80;99.20
33095;DHT22;19459;53.044;8.910;2022-08-19T08:58:19;24.10;99.60
33095;DHT22;19459;53.044;8.910;2022-08-19T09:00:57;24.20;98.70
33095;DHT22;19459;53.044;8.910;2022-08-19T09:03:25;24.70;98.00
33095;DHT22;19459;53.044;8.910;2022-08-19T09:06:07;25.00;98.40
33095;DHT22;19459;53.044;8.910;2022-08-19T09:08:40;25.30;97.00
33095;DHT22;19459;53.044;8.910;2022-08-19T09:11:15;25.60;95.40
33095;DHT22;19459;53.044;8.910;2022-08-19T09:16:45;25.60;95.40
33095;DHT22;19459;53.044;8.910;2022-08-19T09:19:10;25.40;95.80
33095;DHT22;19459;53.044;8.910;2022-08-19T09:21:36;25.20;96.00
33095;DHT22;19459;53.044;8.910;2022-08-19T09:24:03;25.20;96.70
33095;DHT22;19459;53.044;8.910;2022-08-19T09:26:30;25.10;96.70
33095;DHT22;19459;53.044;8.910;2022-08-19T09:28:57;25.30;96.60
33095;DHT22;19459;53.044;8.910;2022-08-19T09:31:25;25.20;96.20
33095;DHT22;19459;53.044;8.910;2022-08-19T09:33:53;25.10;95.30
33095;DHT22;19459;53.044;8.910;2022-08-19T09:36:22;25.00;95.60
33095;DHT22;19459;53.044;8.910;2022-08-19T09:38:50;25.00;96.60
33095;DHT22;19459;53.044;8.910;2022-08-19T09:41:18;24.90;96.60
33095;DHT22;19459;53.044;8.910;2022-08-19T09:43:46;25.00;96.90
33095;DHT22;19459;53.044;8.910;2022-08-19T09:46:13;25.20;96.40
33095;DHT22;19459;53.044;8.910;2022-08-19T09:48:39;25.70;96.40
33095;DHT22;19459;53.044;8.910;2022-08-19T09:51:07;25.90;94.40
33095;DHT22;19459;53.044;8.910;2022-08-19T09:53:34;26.20;94.80
33095;DHT22;19459;53.044;8.910;2022-08-19T09:56:01;26.10;94.40
33095;DHT22;19459;53.044;8.910;2022-08-19T09:58:27;25.90;94.60
33095;DHT22;19459;53.044;8.910;2022-08-19T10:00:54;25.70;94.80
33095;DHT22;19459;53.044;8.910;2022-08-19T10:03:20;26.00;94.40
33095;DHT22;19459;53.044;8.910;2022-08-19T10:05:46;26.20;94.90
33095;DHT22;19459;53.044;8.910;2022-08-19T10:08:16;26.20;94.10
33095;DHT22;19459;53.044;8.910;2022-08-19T10:10:44;26.50;94.60
33095;DHT22;19459;53.044;8.910;2022-08-19T10:13:11;26.90;94.80
33095;DHT22;19459;53.044;8.910;2022-08-19T10:15:37;27.50;94.20
33095;DHT22;19459;53.044;8.910;2022-08-19T10:18:06;27.70;93.10
33095;DHT22;19459;53.044;8.910;2022-08-19T10:20:31;27.80;93.50
33095;DHT22;19459;53.044;8.910;2022-08-19T10:22:57;28.00;92.20
33095;DHT22;19459;53.044;8.910;2022-08-19T10:25:24;28.10;93.00
33095;DHT22;19459;53.044;8.910;2022-08-19T10:27:52;28.60;93.20
33095;DHT22;19459;53.044;8.910;2022-08-19T10:30:18;28.40;91.60
33095;DHT22;19459;53.044;8.910;2022-08-19T10:32:44;28.60;92.20
33095;DHT22;19459;53.044;8.910;2022-08-19T10:35:11;29.00;92.60
33095;DHT22;19459;53.044;8.910;2022-08-19T10:37:38;28.90;91.30
33095;DHT22;19459;53.044;8.910;2022-08-19T10:40:07;29.00;90.70
33095;DHT22;19459;53.044;8.910;2022-08-19T10:42:34;28.80;90.60
33095;DHT22;19459;53.044;8.910;2022-08-19T10:45:00;29.00;90.40
33095;DHT22;19459;53.044;8.910;2022-08-19T10:47:26;29.30;90.20
33095;DHT22;19459;53.044;8.910;2022-08-19T10:49:52;29.40;89.50
33095;DHT22;19459;53.044;8.910;2022-08-19T10:52:41;29.60;89.20
33095;DHT22;19459;53.044;8.910;2022-08-19T10:55:08;29.60;89.80
33095;DHT22;19459;53.044;8.910;2022-08-19T10:57:52;29.90;88.90
33095;DHT22;19459;53.044;8.910;2022-08-19T11:00:19;30.40;89.10
33095;DHT22;19459;53.044;8.910;2022-08-19T11:02:45;30.60;88.40
33095;DHT22;19459;53.044;8.910;2022-08-19T11:05:11;30.50;85.70
33095;DHT22;19459;53.044;8.910;2022-08-19T11:07:38;29.80;86.70
33095;DHT22;19459;53.044;8.910;2022-08-19T11:10:04;30.30;88.00
33095;DHT22;19459;53.044;8.910;2022-08-19T11:12:30;30.40;88.50
33095;DHT22;19459;53.044;8.910;2022-08-19T11:14:56;30.60;85.90
33095;DHT22;19459;53.044;8.910;2022-08-19T11:17:22;31.00;87.30
33095;DHT22;19459;53.044;8.910;2022-08-19T11:19:49;30.80;84.60
33095;DHT22;19459;53.044;8.910;2022-08-19T11:22:15;30.80;85.50
33095;DHT22;19459;53.044;8.910;2022-08-19T11:24:41;30.70;83.90
33095;DHT22;19459;53.044;8.910;2022-08-19T11:27:07;30.80;84.40
33095;DHT22;19459;53.044;8.910;2022-08-19T11:29:34;30.50;83.80
33095;DHT22;19459;53.044;8.910;2022-08-19T11:32:05;30.50;83.70
33095;DHT22;19459;53.044;8.910;2022-08-19T11:34:34;30.90;84.80
33095;DHT22;19459;53.044;8.910;2022-08-19T11:37:00;30.90;83.00
33095;DHT22;19459;53.044;8.910;2022-08-19T11:39:28;30.50;81.70
33095;DHT22;19459;53.044;8.910;2022-08-19T11:41:55;30.90;82.10
33095;DHT22;19459;53.044;8.910;2022-08-19T11:44:23;31.20;81.70
33095;DHT22;19459;53.044;8.910;2022-08-19T11:46:48;30.70;80.00
33095;DHT22;19459;53.044;8.910;2022-08-19T11:49:16;31.20;81.20
33095;DHT22;19459;53.044;8.910;2022-08-19T11:51:46;31.20;79.40
33095;DHT22;19459;53.044;8.910;2022-08-19T11:54:14;31.50;80.00
33095;DHT22;19459;53.044;8.910;2022-08-19T11:56:41;31.70;77.90
33095;DHT22;19459;53.044;8.910;2022-08-19T11:59:07;31.60;78.80
33095;DHT22;19459;53.044;8.910;2022-08-19T12:01:33;31.50;78.60
33095;DHT22;19459;53.044;8.910;2022-08-19T12:03:59;31.80;78.50
33095;DHT22;19459;53.044;8.910;2022-08-19T12:06:26;32.00;77.60
33095;DHT22;19459;53.044;8.910;2022-08-19T12:08:54;31.20;76.20
33095;DHT22;19459;53.044;8.910;2022-08-19T12:11:21;31.30;78.10
33095;DHT22;19459;53.044;8.910;2022-08-19T12:13:47;31.40;76.50
33095;DHT22;19459;53.044;8.910;2022-08-19T12:16:14;31.50;76.40
33095;DHT22;19459;53.044;8.910;2022-08-19T12:18:42;32.10;79.10
33095;DHT22;19459;53.044;8.910;2022-08-19T12:21:15;32.20;77.30
33095;DHT22;19459;53.044;8.910;2022-08-19T12:23:42;32.40;76.60
33095;DHT22;19459;53.044;8.910;2022-08-19T12:26:10;32.20;73.60
33095;DHT22;19459;53.044;8.910;2022-08-19T12:28:37;32.40;74.80
33095;DHT22;19459;53.044;8.910;2022-08-19T12:31:03;32.30;76.30
33095;DHT22;19459;53.044;8.910;2022-08-19T12:33:29;32.20;75.00
33095;DHT22;19459;53.044;8.910;2022-08-19T12:36:00;32.00;74.50
33095;DHT22;19459;53.044;8.910;2022-08-19T12:38:26;32.20;76.00
33095;DHT22;19459;53.044;8.910;2022-08-19T12:40:53;32.00;75.00
33095;DHT22;19459;53.044;8.910;2022-08-19T12:43:18;31.70;73.40
33095;DHT22;19459;53.044;8.910;2022-08-19T12:45:45;32.20;74.70
33095;DHT22;19459;53.044;8.910;2022-08-19T12:48:11;31.90;73.60
33095;DHT22;19459;53.044;8.910;2022-08-19T12:50:44;32.00;73.20
33095;DHT22;19459;53.044;8.910;2022-08-19T12:53:11;32.20;74.00
33095;DHT22;19459;53.044;8.910;2022-08-19T12:55:37;32.20;73.30
33095;DHT22;19459;53.044;8.910;2022-08-19T12:58:15;32.30;73.60
33095;DHT22;19459;53.044;8.910;2022-08-19T13:00:42;32.10;73.60
33095;DHT22;19459;53.044;8.910;2022-08-19T13:03:08;32.30;74.60
33095;DHT22;19459;53.044;8.910;2022-08-19T13:05:34;32.40;74.90
33095;DHT22;19459;53.044;8.910;2022-08-19T13:08:00;32.30;72.20
33095;DHT22;19459;53.044;8.910;2022-08-19T13:10:28;32.40;72.40
33095;DHT22;19459;53.044;8.910;2022-08-19T13:12:56;32.50;70.90
33095;DHT22;19459;53.044;8.910;2022-08-19T13:15:24;32.20;71.90
33095;DHT22;19459;53.044;8.910;2022-08-19T13:17:51;32.10;71.80
33095;DHT22;19459;53.044;8.910;2022-08-19T13:20:20;32.10;74.80
33095;DHT22;19459;53.044;8.910;2022-08-19T13:22:47;32.20;73.50
33095;DHT22;19459;53.044;8.910;2022-08-19T13:25:13;32.60;73.00
33095;DHT22;19459;53.044;8.910;2022-08-19T13:27:41;32.40;72.00
33095;DHT22;19459;53.044;8.910;2022-08-19T13:30:08;32.30;70.30
33095;DHT22;19459;53.044;8.910;2022-08-19T13:32:53;32.20;72.50
33095;DHT22;19459;53.044;8.910;2022-08-19T13:35:58;32.20;72.70
33095;DHT22;19459;53.044;8.910;2022-08-19T13:38:25;32.20;71.30
33095;DHT22;19459;53.044;8.910;2022-08-19T13:40:52;32.10;72.00
33095;DHT22;19459;53.044;8.910;2022-08-19T13:43:19;32.20;73.30
33095;DHT22;19459;53.044;8.910;2022-08-19T13:45:47;32.40;74.70
33095;DHT22;19459;53.044;8.910;2022-08-19T13:48:13;32.00;71.60
33095;DHT22;19459;53.044;8.910;2022-08-19T13:50:40;31.90;70.60
33095;DHT22;19459;53.044;8.910;2022-08-19T13:53:08;32.00;72.30
33095;DHT22;19459;53.044;8.910;2022-08-19T13:55:35;32.00;72.70
33095;DHT22;19459;53.044;8.910;2022-08-19T13:58:03;32.20;72.00
33095;DHT22;19459;53.044;8.910;2022-08-19T14:00:33;32.40;73.00
33095;DHT22;19459;53.044;8.910;2022-08-19T14:03:01;32.40;71.70
33095;DHT22;19459;53.044;8.910;2022-08-19T14:05:28;32.40;74.00
33095;DHT22;19459;53.044;8.910;2022-08-19T14:07:54;32.40;71.60
33095;DHT22;19459;53.044;8.910;2022-08-19T14:10:20;32.20;70.10
33095;DHT22;19459;53.044;8.910;2022-08-19T14:12:46;32.20;70.20
33095;DHT22;19459;53.044;8.910;2022-08-19T14:15:12;32.40;72.20
33095;DHT22;19459;53.044;8.910;2022-08-19T14:17:39;32.60;72.50
33095;DHT22;19459;53.044;8.910;2022-08-19T14:20:05;32.30;70.30
33095;DHT22;19459;53.044;8.910;2022-08-19T14:22:39;32.20;71.50
33095;DHT22;19459;53.044;8.910;2022-08-19T14:25:06;32.20;72.00
33095;DHT22;19459;53.044;8.910;2022-08-19T14:27:34;32.40;73.00
33095;DHT22;19459;53.044;8.910;2022-08-19T14:30:01;32.50;72.20
33095;DHT22;19459;53.044;8.910;2022-08-19T14:32:27;32.60;72.30
33095;DHT22;19459;53.044;8.910;2022-08-19T14:34:53;32.60;72.50
33095;DHT22;19459;53.044;8.910;2022-08-19T14:37:19;32.70;72.20
33095;DHT22;19459;53.044;8.910;2022-08-19T14:39:46;32.50;71.80
33095;DHT22;19459;53.044;8.910;2022-08-19T14:42:12;32.50;72.80
33095;DHT22;19459;53.044;8.910;2022-08-19T14:44:39;32.20;71.40
33095;DHT22;19459;53.044;8.910;2022-08-19T14:47:05;32.10;72.90
33095;DHT22;19459;53.044;8.910;2022-08-19T14:49:32;32.00;73.00
33095;DHT22;19459;53.044;8.910;2022-08-19T14:51:58;32.00;72.90
33095;DHT22;19459;53.044;8.910;2022-08-19T14:54:24;32.00;73.10
33095;DHT22;19459;53.044;8.910;2022-08-19T14:56:50;32.20;73.70
33095;DHT22;19459;53.044;8.910;2022-08-19T14:59:16;32.10;74.40
33095;DHT22;19459;53.044;8.910;2022-08-19T15:01:41;32.00;72.40
33095;DHT22;19459;53.044;8.910;2022-08-19T15:04:07;31.70;74.00
33095;DHT22;19459;53.044;8.910;2022-08-19T15:06:33;31.70;73.70
33095;DHT22;19459;53.044;8.910;2022-08-19T15:08:59;31.90;74.00
33095;DHT22;19459;53.044;8.910;2022-08-19T15:11:26;31.80;74.00
33095;DHT22;19459;53.044;8.910;2022-08-19T15:13:53;31.90;74.50
33095;DHT22;19459;53.044;8.910;2022-08-19T15:16:22;31.80;74.10
33095;DHT22;19459;53.044;8.910;2022-08-19T15:18:50;31.50;74.20
33095;DHT22;19459;53.044;8.910;2022-08-19T15:21:18;31.60;75.00
33095;DHT22;19459;53.044;8.910;2022-08-19T15:23:44;31.50;74.50
33095;DHT22;19459;53.044;8.910;2022-08-19T15:26:11;31.30;75.00
33095;DHT22;19459;53.044;8.910;2022-08-19T15:28:38;31.10;73.30
33095;DHT22;19459;53.044;8.910;2022-08-19T15:31:04;30.90;75.00
33095;DHT22;19459;53.044;8.910;2022-08-19T15:33:34;30.70;75.70
33095;DHT22;19459;53.044;8.910;2022-08-19T15:36:05;30.50;76.50
33095;DHT22;19459;53.044;8.910;2022-08-19T15:38:32;30.50;77.20
33095;DHT22;19459;53.044;8.910;2022-08-19T15:40:59;30.40;76.00
33095;DHT22;19459;53.044;8.910;2022-08-19T15:43:46;30.40;77.10